This is the latest recevied weather packets stored in our database for station/object DC8RAI-12. If no packets are shown the sender has not sent any weather packets the latest 10 day(s).
| Time | Temp. | Humidity | Pressure | Rain* | Wind** | Luminosity | Snow |
|---|---|---|---|---|---|---|---|
| 1777340688 | 5° C | 70% | 1018.1 hPa | - | - | - | - |
| 1777339788 | 4.44° C | 73% | 1017.9 hPa | - | - | - | - |
| 1777338887 | 5° C | 72% | 1018 hPa | - | - | - | - |
| 1777337987 | 5° C | 71% | 1017.9 hPa | - | - | - | - |
| 1777337086 | 5.56° C | 71% | 1018 hPa | - | - | - | - |
| 1777336186 | 5° C | 73% | 1018.2 hPa | - | - | - | - |
| 1777335286 | 5.56° C | 69% | 1018.3 hPa | - | - | - | - |
| 1777334385 | 6.11° C | 69% | 1018.2 hPa | - | - | - | - |
| 1777333485 | 6.67° C | 66% | 1018.2 hPa | - | - | - | - |
| 1777332585 | 6.67° C | 65% | 1018.2 hPa | - | - | - | - |
| 1777331685 | 7.22° C | 65% | 1018.2 hPa | - | - | - | - |
| 1777330785 | 7.22° C | 63% | 1018.4 hPa | - | - | - | - |
| 1777329885 | 7.22° C | 65% | 1018.4 hPa | - | - | - | - |
| 1777328985 | 7.78° C | 64% | 1018.5 hPa | - | - | - | - |
| 1777328085 | 7.22° C | 65% | 1018.4 hPa | - | - | - | - |
| 1777327184 | 7.78° C | 63% | 1018.5 hPa | - | - | - | - |
| 1777326284 | 7.78° C | 62% | 1018.6 hPa | - | - | - | - |
| 1777325384 | 8.89° C | 58% | 1018.5 hPa | - | - | - | - |
| 1777324484 | 8.89° C | 59% | 1018.5 hPa | - | - | - | - |
| 1777323584 | 8.89° C | 62% | 1018.5 hPa | - | - | - | - |
| 1777322683 | 9.44° C | 59% | 1018.7 hPa | - | - | - | - |
| 1777321783 | 10° C | 58% | 1018.7 hPa | - | - | - | - |
| 1777320883 | 10.56° C | 59% | 1018.8 hPa | - | - | - | - |
| 1777319983 | 11.67° C | 53% | 1018.6 hPa | - | - | - | - |
| 1777319083 | 12.22° C | 54% | 1018.7 hPa | - | - | - | - |
* Rain since midnight (hover to see other rain measurements)
** Current wind speed in m/s (hover to see current wind gust speed)